This is the latest recevied weather packets stored in our database for station/object HJ3GNC-17. If no packets are shown the sender has not sent any weather packets the latest 10 day(s).
| Time | Temp. | Humidity | Pressure | Rain* | Wind** | Luminosity | Snow |
|---|---|---|---|---|---|---|---|
| 1777695703 | 10° C | 89% | 1019 hPa | 0 mm | - | - | - |
| 1777694762 | 10° C | 89% | 1019 hPa | 0 mm | - | - | - |
| 1777693819 | 10° C | 89% | 1019 hPa | 0 mm | - | - | - |
| 1777692876 | 10.56° C | 88% | 1019 hPa | 0 mm | - | - | - |
| 1777691937 | 11.11° C | 88% | 1018 hPa | 0 mm | - | - | - |
| 1777690989 | 11.11° C | 88% | 1018 hPa | 0 mm | - | - | - |
| 1777690047 | 11.11° C | 88% | 1018 hPa | 0 mm | - | - | - |
| 1777689097 | 11.67° C | 88% | 1018 hPa | 0 mm | - | - | - |
| 1777688153 | 12.22° C | 88% | 1018 hPa | 0 mm | - | - | - |
| 1777687192 | 13.33° C | 77% | 1018 hPa | 0 mm | - | - | - |
| 1777686245 | 13.33° C | 77% | 1018 hPa | 0 mm | - | - | - |
| 1777685302 | 13.33° C | 77% | 1017 hPa | 0 mm | - | - | - |
| 1777684355 | 13.33° C | 77% | 1017 hPa | 0 mm | - | - | - |
| 1777683411 | 13.89° C | 63% | 1017 hPa | 0 mm | - | - | - |
| 1777682449 | 13.89° C | 63% | 1016 hPa | 0 mm | - | - | - |
| 1777681506 | 13.89° C | 63% | 1015 hPa | 0 mm | - | - | - |
| 1777680561 | 13.89° C | 63% | 1015 hPa | 0 mm | - | - | - |
| 1777679609 | 15° C | 59% | 1015 hPa | 0 mm | - | - | - |
| 1777678651 | 15° C | 59% | 1015 hPa | 0 mm | - | - | - |
| 1777677709 | 15° C | 59% | 1013 hPa | 0 mm | - | - | - |
| 1777676706 | 15° C | 59% | 1013 hPa | 0 mm | - | - | - |
| 1777675763 | 17.22° C | 49% | 1014 hPa | 0 mm | - | - | - |
| 1777674773 | 15° C | 55% | 1013 hPa | 0 mm | - | - | - |
| 1777673827 | 15.56° C | 55% | 1012 hPa | 0 mm | - | - | - |
| 1777672872 | 15.56° C | 55% | 1012 hPa | 0 mm | - | - | - |
* Rain latest hour (hover to see other rain measurements)
** Current wind speed in m/s (hover to see current wind gust speed)